Elyria, Ohio
Current Conditions -  °F | °C
As of 11:53 PM on Monday 22 Dec 2014 (Local Time) from KLPR Reporting Station
Broken Clouds Broken Clouds  
Wind Chill: 33°   Ceiling: 11000
Heat Index: 40°   Visibility: 9mi
Dew Point: 32°   Wind: 13mph
Humidity: 73%   Direction: 150°SSE
Pressure: 29.86"   Gusts: NA
Location:  41.37°N, 82.1°W
Report Text: KLPR 230453Z AUTO 15011KT 9SM SCT090 BKN110 04/00 A2986 RMK AO2 SLP115 T00440000 400561056 TSNO
Loading
Personal Weather Stations






























Interactive Weather Map New forecast layout! Learn more

10-Day Weather Forecast

Advertisements
Track Severe Weather on mobile